createdAt,value
2018-01-28T00:01:08.064Z,14.50
2018-01-28T00:03:36.487Z,16.15
2018-01-28T00:06:04.003Z,14.95
2018-01-28T00:08:31.494Z,14.40
2018-01-28T00:11:00.039Z,14.00
2018-01-28T00:13:28.301Z,14.65
2018-01-28T00:15:55.617Z,15.30
2018-01-28T00:18:23.235Z,13.13
2018-01-28T00:20:50.748Z,14.35
2018-01-28T00:23:18.234Z,15.00
2018-01-28T00:25:45.742Z,14.00
2018-01-28T00:28:13.268Z,15.10
2018-01-28T00:30:42.290Z,16.55
2018-01-28T00:33:09.785Z,13.50
2018-01-28T00:35:37.301Z,13.20
2018-01-28T00:38:04.802Z,14.65
2018-01-28T00:40:32.314Z,14.30
2018-01-28T00:42:59.835Z,13.00
2018-01-28T00:45:27.411Z,14.60
2018-01-28T00:47:54.913Z,12.88
2018-01-28T00:50:22.429Z,13.27
2018-01-28T00:52:49.917Z,13.45
2018-01-28T00:55:17.464Z,13.85
2018-01-28T00:57:45.015Z,14.55
2018-01-28T01:00:14.403Z,14.55
2018-01-28T01:02:41.901Z,12.70
2018-01-28T01:05:09.575Z,12.98
2018-01-28T01:07:37.074Z,11.85
2018-01-28T01:10:04.594Z,13.05
2018-01-28T01:12:32.205Z,12.98
2018-01-28T01:14:59.698Z,12.20
2018-01-28T01:17:27.187Z,10.73
2018-01-28T01:19:54.782Z,12.20
2018-01-28T01:22:22.280Z,12.40
2018-01-28T01:24:50.830Z,11.65
2018-01-28T01:27:18.321Z,12.23
2018-01-28T01:29:45.810Z,11.90
2018-01-28T01:32:13.315Z,12.37
2018-01-28T01:34:40.854Z,11.98
2018-01-28T01:37:08.355Z,13.27
2018-01-28T01:39:35.845Z,10.27
2018-01-28T01:42:03.343Z,13.02
2018-01-28T01:44:30.833Z,11.23
2018-01-28T01:46:58.322Z,11.12
2018-01-28T01:49:31.565Z,11.60
2018-01-28T01:51:59.053Z,11.70
2018-01-28T01:54:26.551Z,12.50
2018-01-28T01:56:54.041Z,11.75
2018-01-28T01:59:21.541Z,11.50
2018-01-28T02:01:49.037Z,12.43
2018-01-28T02:04:16.544Z,11.68
2018-01-28T02:06:44.050Z,12.65
2018-01-28T02:09:11.612Z,12.07
2018-01-28T02:11:39.172Z,10.98
2018-01-28T02:14:06.674Z,12.75
2018-01-28T02:16:34.289Z,12.60
2018-01-28T02:19:01.783Z,12.15
2018-01-28T02:21:29.278Z,11.98
2018-01-28T02:23:56.866Z,10.75
2018-01-28T02:26:24.359Z,12.30
2018-01-28T02:28:51.868Z,10.68
2018-01-28T02:31:19.365Z,11.05
2018-01-28T02:33:46.907Z,12.10
2018-01-28T02:36:14.463Z,14.02
2018-01-28T02:38:41.983Z,10.90
2018-01-28T02:41:09.493Z,12.45
2018-01-28T02:43:37.067Z,12.25
2018-01-28T02:46:04.561Z,12.80
2018-01-28T02:48:32.061Z,12.55
2018-01-28T02:51:00.524Z,12.07
2018-01-28T02:53:28.022Z,12.13
2018-01-28T02:55:55.546Z,12.63
2018-01-28T02:58:23.038Z,12.90
2018-01-28T03:00:50.537Z,12.82
2018-01-28T03:03:18.025Z,13.40
2018-01-28T03:05:45.522Z,12.68
2018-01-28T03:08:13.017Z,13.00
2018-01-28T03:10:40.509Z,12.70
2018-01-28T03:13:08.013Z,12.88
2018-01-28T03:15:35.511Z,12.70
2018-01-28T03:18:03.206Z,14.73
2018-01-28T03:20:30.698Z,13.75
2018-01-28T03:22:58.216Z,13.40
2018-01-28T03:25:25.705Z,12.98
2018-01-28T03:27:53.202Z,12.15
2018-01-28T03:30:20.698Z,12.93
2018-01-28T03:32:48.017Z,12.70
2018-01-28T03:35:15.329Z,12.43
2018-01-28T03:37:42.666Z,13.68
2018-01-28T03:40:10.166Z,13.13
2018-01-28T03:42:37.654Z,11.57
2018-01-28T03:45:05.145Z,12.68
2018-01-28T03:47:32.634Z,12.82
2018-01-28T03:50:00.153Z,12.48
2018-01-28T03:52:27.654Z,13.32
2018-01-28T03:54:55.152Z,13.68
2018-01-28T03:57:22.690Z,13.48
2018-01-28T03:59:50.273Z,13.07
2018-01-28T04:02:17.788Z,13.18
2018-01-28T04:04:45.393Z,12.68
2018-01-28T04:07:12.910Z,13.23
2018-01-28T04:09:40.430Z,14.87
2018-01-28T04:12:07.946Z,13.93
2018-01-28T04:14:35.470Z,13.60
2018-01-28T04:17:02.990Z,13.35
2018-01-28T04:19:30.507Z,14.18
2018-01-28T04:21:58.026Z,14.05
2018-01-28T04:24:25.529Z,13.75
2018-01-28T04:26:54.049Z,14.60
2018-01-28T04:29:22.494Z,14.20
2018-01-28T04:31:50.010Z,12.82
2018-01-28T04:34:17.510Z,14.90
2018-01-28T04:36:45.018Z,15.00
2018-01-28T04:39:12.529Z,15.23
2018-01-28T04:41:41.041Z,15.07
2018-01-28T04:44:08.534Z,14.60
2018-01-28T04:46:36.045Z,15.40
2018-01-28T04:49:03.689Z,16.40
2018-01-28T04:51:31.201Z,15.57
2018-01-28T04:53:58.709Z,16.85
2018-01-28T04:56:26.221Z,16.60
2018-01-28T04:58:53.525Z,16.50
2018-01-28T05:01:20.852Z,16.73
2018-01-28T05:03:48.360Z,16.45
2018-01-28T05:06:15.618Z,16.70
2018-01-28T05:08:42.933Z,16.05
2018-01-28T05:11:10.426Z,16.33
2018-01-28T05:13:37.745Z,16.75
2018-01-28T05:16:05.048Z,17.33
2018-01-28T05:18:32.347Z,17.92
2018-01-28T05:20:59.667Z,17.60
2018-01-28T05:23:28.034Z,17.25
2018-01-28T05:25:55.345Z,17.05
2018-01-28T05:28:22.645Z,17.23
2018-01-28T05:30:50.148Z,16.10
2018-01-28T05:33:17.639Z,16.90
2018-01-28T05:35:46.195Z,16.08
2018-01-28T05:38:13.702Z,18.37
2018-01-28T05:40:41.202Z,16.80
2018-01-28T05:43:09.713Z,17.60
2018-01-28T05:45:37.229Z,16.55
2018-01-28T05:48:04.482Z,17.70
2018-01-28T05:50:31.984Z,17.23
2018-01-28T05:52:59.497Z,17.15
2018-01-28T05:55:27.011Z,16.37
2018-01-28T05:57:54.519Z,15.90
2018-01-28T06:00:22.021Z,15.45
2018-01-28T06:02:49.322Z,16.37
2018-01-28T06:05:16.651Z,16.67
2018-01-28T06:07:44.149Z,16.65
2018-01-28T06:10:11.753Z,15.50
2018-01-28T06:12:39.269Z,16.50
2018-01-28T06:15:07.750Z,15.52
2018-01-28T06:17:35.258Z,15.52
2018-01-28T06:20:02.747Z,16.42
2018-01-28T06:22:30.265Z,15.93
2018-01-28T06:24:57.753Z,14.25
2018-01-28T06:27:25.270Z,15.63
2018-01-28T06:29:52.770Z,16.02
2018-01-28T06:32:20.082Z,16.17
2018-01-28T06:34:47.610Z,16.17
2018-01-28T06:37:14.920Z,14.52
2018-01-28T06:39:42.446Z,14.05
2018-01-28T06:42:09.935Z,15.00
2018-01-28T06:44:37.447Z,14.30
2018-01-28T06:47:05.058Z,13.90
2018-01-28T06:49:32.557Z,13.90
2018-01-28T06:52:00.051Z,12.25
2018-01-28T06:54:27.557Z,18.70
2018-01-28T06:56:55.227Z,12.70
2018-01-28T06:59:22.730Z,13.82
2018-01-28T07:01:50.238Z,13.98
2018-01-28T07:04:17.734Z,14.23
2018-01-28T07:06:45.228Z,14.00
2018-01-28T07:09:12.769Z,13.00
2018-01-28T07:11:40.261Z,13.10
2018-01-28T07:14:07.777Z,13.00
2018-01-28T07:16:35.261Z,12.52
2018-01-28T07:19:02.808Z,12.63
2018-01-28T07:21:30.306Z,11.77
2018-01-28T07:23:57.810Z,13.10
2018-01-28T07:26:25.082Z,11.65
2018-01-28T07:28:52.654Z,11.38
2018-01-28T07:31:20.146Z,11.82
2018-01-28T07:33:47.637Z,12.23
2018-01-28T07:36:16.674Z,10.57
2018-01-28T07:38:44.170Z,12.13
2018-01-28T07:41:11.579Z,11.60
2018-01-28T07:43:39.096Z,10.20
2018-01-28T07:46:06.593Z,10.50
2018-01-28T07:48:34.086Z,10.43
2018-01-28T07:51:01.577Z,10.45
2018-01-28T07:53:29.171Z,11.32
2018-01-28T07:55:56.656Z,9.73
2018-01-28T07:58:23.963Z,9.40
2018-01-28T08:00:51.473Z,10.98
2018-01-28T08:03:18.968Z,13.62
2018-01-28T08:05:46.462Z,10.68
2018-01-28T08:08:14.507Z,12.85
2018-01-28T08:11:02.601Z,11.02
2018-01-28T08:13:32.438Z,15.55
2018-01-28T08:16:03.045Z,10.27
2018-01-28T08:18:31.554Z,19.77
2018-01-28T08:20:59.051Z,10.40
2018-01-28T08:23:26.534Z,12.20
2018-01-28T08:25:53.863Z,17.95
2018-01-28T08:28:23.776Z,15.52
2018-01-28T08:30:51.111Z,11.38
2018-01-28T08:33:18.630Z,11.50
2018-01-28T08:35:45.954Z,8.43
2018-01-28T08:38:14.260Z,9.90
2018-01-28T08:40:41.765Z,8.35
2018-01-28T08:43:09.257Z,7.90
2018-01-28T08:45:36.739Z,8.15
2018-01-28T08:48:04.250Z,8.45
2018-01-28T08:50:32.479Z,6.93
2018-01-28T08:52:59.803Z,8.65
2018-01-28T08:55:27.105Z,7.68
2018-01-28T08:57:54.702Z,6.37
2018-01-28T09:00:22.182Z,5.62
2018-01-28T09:02:49.673Z,6.90
2018-01-28T09:05:17.161Z,6.35
2018-01-28T09:07:44.643Z,6.40
2018-01-28T09:10:12.171Z,7.22
2018-01-28T09:12:39.749Z,6.25
2018-01-28T09:15:07.253Z,5.90
2018-01-28T09:17:34.893Z,7.20
2018-01-28T09:20:02.402Z,6.32
2018-01-28T09:22:29.886Z,6.68
2018-01-28T09:24:57.185Z,6.85
2018-01-28T09:27:24.664Z,6.07
2018-01-28T09:29:52.151Z,6.55
2018-01-28T09:32:19.630Z,5.50
2018-01-28T09:34:47.110Z,5.97
2018-01-28T09:37:14.589Z,6.35
2018-01-28T09:39:42.189Z,5.62
2018-01-28T09:42:09.692Z,5.18
2018-01-28T09:44:37.187Z,5.85
2018-01-28T09:47:04.694Z,5.45
2018-01-28T09:49:32.195Z,4.97
2018-01-28T09:51:59.780Z,5.00
2018-01-28T09:54:27.281Z,4.95
2018-01-28T09:56:54.761Z,6.00
2018-01-28T09:59:22.237Z,5.12
2018-01-28T10:01:49.726Z,4.93
2018-01-28T10:04:17.226Z,5.03
2018-01-28T10:06:44.714Z,4.60
2018-01-28T10:09:12.215Z,4.47
2018-01-28T10:11:39.693Z,4.70
2018-01-28T10:14:06.951Z,4.55
2018-01-28T10:16:34.446Z,5.00
2018-01-28T10:19:01.954Z,4.60
2018-01-28T10:21:29.440Z,4.53
2018-01-28T10:23:56.935Z,4.53
2018-01-28T10:26:24.923Z,4.68
2018-01-28T10:28:52.550Z,4.47
2018-01-28T10:31:20.051Z,4.22
2018-01-28T10:33:47.541Z,4.50
2018-01-28T10:36:15.042Z,5.40
2018-01-28T10:38:42.533Z,4.22
2018-01-28T10:41:10.020Z,4.05
2018-01-28T10:43:37.708Z,3.80
2018-01-28T10:46:05.205Z,3.95
2018-01-28T10:48:32.706Z,4.30
2018-01-28T10:51:00.298Z,4.00
2018-01-28T10:53:27.618Z,3.90
2018-01-28T10:55:55.104Z,3.90
2018-01-28T10:58:24.428Z,3.75
2018-01-28T11:00:51.966Z,3.78
2018-01-28T11:03:19.523Z,3.40
2018-01-28T11:05:47.034Z,3.40
2018-01-28T11:08:14.547Z,3.15
2018-01-28T11:10:42.051Z,2.95
2018-01-28T11:13:09.534Z,3.33
2018-01-28T11:15:37.301Z,3.20
2018-01-28T11:18:04.789Z,3.22
2018-01-28T11:20:32.302Z,2.95
2018-01-28T11:22:59.609Z,2.70
2018-01-28T11:25:27.101Z,3.20
2018-01-28T11:27:54.582Z,2.85
2018-01-28T11:30:22.065Z,3.00
2018-01-28T11:32:49.561Z,3.12
2018-01-28T11:35:17.319Z,3.30
2018-01-28T11:37:44.915Z,2.90
2018-01-28T11:40:12.238Z,2.80
2018-01-28T11:42:39.726Z,2.10
2018-01-28T11:45:07.210Z,2.28
2018-01-28T11:47:34.710Z,6.45
2018-01-28T11:50:03.166Z,3.62
2018-01-28T11:52:30.762Z,2.80
2018-01-28T11:54:58.245Z,3.08
2018-01-28T11:57:25.730Z,2.78
2018-01-28T11:59:54.474Z,2.97
2018-01-28T12:02:22.017Z,2.47
2018-01-28T12:04:49.509Z,2.65
2018-01-28T12:07:17.030Z,2.10
2018-01-28T12:09:44.510Z,2.17
2018-01-28T12:12:11.989Z,2.37
2018-01-28T12:14:39.468Z,2.12
2018-01-28T12:17:08.109Z,2.12
2018-01-28T12:19:35.594Z,2.22
2018-01-28T12:22:03.076Z,2.35
2018-01-28T12:24:30.927Z,2.20
2018-01-28T12:26:59.358Z,2.40
2018-01-28T12:29:26.837Z,2.00
2018-01-28T12:31:54.156Z,2.45
2018-01-28T12:34:21.448Z,2.30
2018-01-28T12:36:50.064Z,2.22
2018-01-28T12:39:17.732Z,2.30
2018-01-28T12:41:45.238Z,1.98
2018-01-28T12:44:12.731Z,2.30
2018-01-28T12:46:40.353Z,2.62
2018-01-28T12:49:07.994Z,2.15
2018-01-28T12:51:35.476Z,2.80
2018-01-28T12:54:02.969Z,2.20
2018-01-28T12:56:30.457Z,2.30
2018-01-28T12:58:57.998Z,2.30
2018-01-28T13:01:25.515Z,1.80
2018-01-28T13:03:52.990Z,1.77
2018-01-28T13:06:21.442Z,1.60
2018-01-28T13:08:49.848Z,1.77
2018-01-28T13:11:17.105Z,1.62
2018-01-28T13:13:44.594Z,1.30
2018-01-28T13:16:12.094Z,1.37
2018-01-28T13:18:39.573Z,1.58
2018-01-28T13:21:07.081Z,1.35
2018-01-28T13:23:34.565Z,1.30
2018-01-28T13:26:02.045Z,1.40
2018-01-28T13:28:29.547Z,1.55
2018-01-28T13:30:57.026Z,1.20
2018-01-28T13:33:24.500Z,1.00
2018-01-28T13:35:53.178Z,1.50
2018-01-28T13:38:20.658Z,0.90
2018-01-28T13:40:48.156Z,0.90
2018-01-28T13:43:15.632Z,0.80
2018-01-28T13:45:43.833Z,1.02
2018-01-28T13:48:11.304Z,0.90
2018-01-28T13:50:38.781Z,0.80
2018-01-28T13:53:06.282Z,7.97
2018-01-28T13:55:33.762Z,5.75
2018-01-28T13:58:01.259Z,0.93
2018-01-28T14:00:28.549Z,0.90
2018-01-28T14:02:56.026Z,0.80
2018-01-28T14:05:23.498Z,1.00
2018-01-28T14:07:50.966Z,0.70
2018-01-28T14:10:18.467Z,1.00
2018-01-28T14:12:45.945Z,0.90
2018-01-28T14:15:13.430Z,0.70
2018-01-28T14:17:40.917Z,1.00
2018-01-28T14:20:08.398Z,0.88
2018-01-28T14:22:35.909Z,0.80
2018-01-28T14:25:03.210Z,0.70
2018-01-28T14:27:30.724Z,0.70
2018-01-28T14:29:58.390Z,0.60
2018-01-28T14:32:25.881Z,0.82
2018-01-28T14:34:53.459Z,0.70
2018-01-28T14:37:21.051Z,0.70
2018-01-28T14:39:48.518Z,0.88
2018-01-28T14:42:17.074Z,0.55
2018-01-28T14:44:44.725Z,0.65
2018-01-28T14:47:11.959Z,1.12
2018-01-28T14:49:39.426Z,0.70
2018-01-28T14:52:07.017Z,0.82
2018-01-28T14:54:34.314Z,0.62
2018-01-28T14:57:01.645Z,0.80
2018-01-28T14:59:29.121Z,0.80
2018-01-28T15:01:56.590Z,0.70
2018-01-28T15:04:24.066Z,0.60
2018-01-28T15:06:51.575Z,1.15
2018-01-28T15:09:19.110Z,1.05
2018-01-28T15:11:46.618Z,1.70
2018-01-28T15:14:13.868Z,0.80
2018-01-28T15:16:41.343Z,1.00
2018-01-28T15:19:08.918Z,0.73
2018-01-28T15:21:36.421Z,0.70
2018-01-28T15:24:03.920Z,0.70
2018-01-28T15:26:31.491Z,0.80
2018-01-28T15:28:59.060Z,0.85
2018-01-28T15:31:26.534Z,0.77
2018-01-28T15:33:54.084Z,0.65
2018-01-28T15:36:21.728Z,0.70
2018-01-28T15:38:49.198Z,0.75
2018-01-28T15:41:16.682Z,8.43
2018-01-28T15:43:44.184Z,12.75
2018-01-28T15:46:11.700Z,4.95
2018-01-28T15:48:39.204Z,1.10
2018-01-28T15:51:07.162Z,0.95
2018-01-28T15:53:34.451Z,0.95
2018-01-28T15:56:01.926Z,0.77
2018-01-28T15:58:29.231Z,1.33
2018-01-28T16:00:56.727Z,0.95
2018-01-28T16:03:24.202Z,0.80
2018-01-28T16:05:51.505Z,0.60
2018-01-28T16:08:18.988Z,1.08
2018-01-28T16:10:46.476Z,0.88
2018-01-28T16:13:14.932Z,0.90
2018-01-28T16:15:42.494Z,0.80
2018-01-28T16:18:09.974Z,0.70
2018-01-28T16:20:37.481Z,0.60
2018-01-28T16:23:04.965Z,1.73
2018-01-28T16:25:32.458Z,1.27
2018-01-28T16:28:00.011Z,0.73
2018-01-28T16:30:27.507Z,0.80
2018-01-28T16:32:55.949Z,1.00
2018-01-28T16:35:23.442Z,1.83
2018-01-28T16:37:51.018Z,2.97
2018-01-28T16:40:18.522Z,0.80
2018-01-28T16:42:45.998Z,2.62
2018-01-28T16:45:13.281Z,1.33
2018-01-28T16:47:40.585Z,0.80
2018-01-28T16:50:08.069Z,1.40
2018-01-28T16:52:35.537Z,0.70
2018-01-28T16:55:03.018Z,0.60
2018-01-28T16:57:30.316Z,0.60
2018-01-28T16:59:57.793Z,0.57
2018-01-28T17:02:25.288Z,0.60
2018-01-28T17:04:52.764Z,0.60
2018-01-28T17:07:20.121Z,0.52
2018-01-28T17:09:47.597Z,0.82
2018-01-28T17:12:15.090Z,0.70
2018-01-28T17:14:42.575Z,0.80
2018-01-28T17:17:10.067Z,0.60
2018-01-28T17:19:37.550Z,0.70
2018-01-28T17:22:05.044Z,0.75
2018-01-28T17:24:32.349Z,0.80
2018-01-28T17:27:00.095Z,0.65
2018-01-28T17:29:27.395Z,0.80
2018-01-28T17:31:54.905Z,0.80
2018-01-28T17:34:22.466Z,0.77
2018-01-28T17:36:50.024Z,0.90
2018-01-28T17:39:17.506Z,0.80
2018-01-28T17:41:44.979Z,0.70
2018-01-28T17:44:12.702Z,0.70
2018-01-28T17:46:40.186Z,1.00
2018-01-28T17:49:08.750Z,0.70
2018-01-28T17:51:36.225Z,0.70
2018-01-28T17:54:03.697Z,0.85
2018-01-28T17:56:31.438Z,0.85
2018-01-28T17:58:58.916Z,0.70
2018-01-28T18:01:26.410Z,0.70
2018-01-28T18:03:54.004Z,1.30
2018-01-28T18:06:21.565Z,1.10
2018-01-28T18:08:49.034Z,0.70
2018-01-28T18:11:16.692Z,0.90
2018-01-28T18:13:44.052Z,0.70
2018-01-28T18:16:11.719Z,0.90
2018-01-28T18:18:39.192Z,0.98
2018-01-28T18:21:07.481Z,5.85
2018-01-28T18:23:35.524Z,0.80
2018-01-28T18:26:03.999Z,3.90
2018-01-28T18:28:31.557Z,4.60
2018-01-28T18:30:59.136Z,1.20
2018-01-28T18:33:26.833Z,1.10
2018-01-28T18:35:54.319Z,5.65
2018-01-28T18:38:21.818Z,12.85
2018-01-28T18:40:49.313Z,1.30
2018-01-28T18:43:16.804Z,1.80
2018-01-28T18:45:44.289Z,7.00
2018-01-28T18:48:11.785Z,1.35
2018-01-28T18:50:39.297Z,5.20
2018-01-28T18:53:06.801Z,1.30
2018-01-28T18:55:34.034Z,1.92
2018-01-28T18:58:01.548Z,2.92
2018-01-28T19:00:29.109Z,1.40
2018-01-28T19:02:56.717Z,6.87
2018-01-28T19:05:24.346Z,1.95
2018-01-28T19:07:51.830Z,2.20
2018-01-28T19:10:19.341Z,1.30
2018-01-28T19:12:46.822Z,2.90
2018-01-28T19:15:14.321Z,3.60
2018-01-28T19:17:41.802Z,1.80
2018-01-28T19:20:09.322Z,1.75
2018-01-28T19:22:36.806Z,1.50
2018-01-28T19:25:05.042Z,1.20
2018-01-28T19:27:32.569Z,1.20
2018-01-28T19:30:00.051Z,0.90
2018-01-28T19:32:27.530Z,1.60
2018-01-28T19:34:55.010Z,1.20
2018-01-28T19:37:22.506Z,0.80
2018-01-28T19:39:49.981Z,0.80
2018-01-28T19:42:17.676Z,0.88
2018-01-28T19:44:45.270Z,0.90
2018-01-28T19:47:12.757Z,0.82
2018-01-28T19:49:40.230Z,1.00
2018-01-28T19:52:07.720Z,1.00
2018-01-28T19:54:35.211Z,1.00
2018-01-28T19:57:02.771Z,0.93
2018-01-28T19:59:30.257Z,3.40
2018-01-28T20:01:57.762Z,1.48
2018-01-28T20:04:25.240Z,1.20
2018-01-28T20:06:52.806Z,1.20
2018-01-28T20:09:20.283Z,1.00
2018-01-28T20:11:47.754Z,1.10
2018-01-28T20:14:15.256Z,1.65
2018-01-28T20:16:42.814Z,4.00
2018-01-28T20:19:10.306Z,1.58
2018-01-28T20:21:37.792Z,1.05
2018-01-28T20:24:05.362Z,0.88
2018-01-28T20:26:33.790Z,0.80
2018-01-28T20:29:01.156Z,0.80
2018-01-28T20:31:28.619Z,0.85
2018-01-28T20:33:56.172Z,0.80
2018-01-28T20:36:23.637Z,0.70
2018-01-28T20:38:51.133Z,2.05
2018-01-28T20:41:19.541Z,1.50
2018-01-28T20:43:47.030Z,0.90
2018-01-28T20:46:14.510Z,1.52
2018-01-28T20:48:42.006Z,1.12
2018-01-28T20:51:09.510Z,0.93
2018-01-28T20:53:36.986Z,2.45
2018-01-28T20:56:04.835Z,1.10
2018-01-28T20:58:32.401Z,0.90
2018-01-28T21:00:59.945Z,0.90
2018-01-28T21:03:27.441Z,0.75
2018-01-28T21:05:55.861Z,0.93
2018-01-28T21:08:23.341Z,1.02
2018-01-28T21:10:50.914Z,1.10
2018-01-28T21:13:19.373Z,0.93
2018-01-28T21:15:47.860Z,0.90
2018-01-28T21:18:15.337Z,1.00
2018-01-28T21:20:42.810Z,1.10
2018-01-28T21:23:10.314Z,1.10
2018-01-28T21:25:37.978Z,1.17
2018-01-28T21:28:05.481Z,1.00
2018-01-28T21:30:35.077Z,1.17
2018-01-28T21:33:02.574Z,1.10
2018-01-28T21:35:30.054Z,1.10
2018-01-28T21:37:57.531Z,0.90
2018-01-28T21:40:25.030Z,1.48
2018-01-28T21:42:52.505Z,1.05
2018-01-28T21:45:19.985Z,1.00
2018-01-28T21:47:47.378Z,1.20
2018-01-28T21:50:14.940Z,1.10
2018-01-28T21:52:42.435Z,1.15
2018-01-28T21:55:09.905Z,1.30
2018-01-28T21:57:37.414Z,1.10
2018-01-28T22:00:04.906Z,1.30
2018-01-28T22:02:32.389Z,0.90
2018-01-28T22:04:59.989Z,0.82
2018-01-28T22:07:27.466Z,1.10
2018-01-28T22:09:54.942Z,1.10
2018-01-28T22:12:22.421Z,1.25
2018-01-28T22:14:49.921Z,1.27
2018-01-28T22:17:17.416Z,1.42
2018-01-28T22:19:44.905Z,0.88
2018-01-28T22:22:12.498Z,1.10
2018-01-28T22:24:39.998Z,1.00
2018-01-28T22:27:07.480Z,1.20
2018-01-28T22:29:34.968Z,1.37
2018-01-28T22:32:02.278Z,1.23
2018-01-28T22:34:29.781Z,1.25
2018-01-28T22:36:57.260Z,1.10
2018-01-28T22:39:25.002Z,1.00
2018-01-28T22:41:52.473Z,1.17
2018-01-28T22:44:19.961Z,0.98
2018-01-28T22:46:47.482Z,1.10
2018-01-28T22:49:14.972Z,1.17
2018-01-28T22:51:42.452Z,1.00
2018-01-28T22:54:11.925Z,1.10
2018-01-28T22:56:39.406Z,1.45
2018-01-28T22:59:06.914Z,1.25
2018-01-28T23:01:34.207Z,1.00
2018-01-28T23:04:01.714Z,1.30
2018-01-28T23:06:28.953Z,1.17
2018-01-28T23:08:56.441Z,1.00
2018-01-28T23:11:23.914Z,1.05
2018-01-28T23:13:51.167Z,1.10
2018-01-28T23:16:18.642Z,1.10
2018-01-28T23:18:46.128Z,1.10
2018-01-28T23:21:13.625Z,1.33
2018-01-28T23:23:41.110Z,1.00
2018-01-28T23:26:09.110Z,1.20
2018-01-28T23:28:36.609Z,1.33
2018-01-28T23:31:04.089Z,1.40
2018-01-28T23:33:32.077Z,0.90
2018-01-28T23:35:59.554Z,1.00
2018-01-28T23:38:27.042Z,1.20
2018-01-28T23:40:54.513Z,1.35
2018-01-28T23:43:21.984Z,1.20
2018-01-28T23:45:49.499Z,1.10
2018-01-28T23:48:16.970Z,1.00
2018-01-28T23:50:44.469Z,0.98
2018-01-28T23:53:12.920Z,1.00
2018-01-28T23:55:40.400Z,0.90
2018-01-28T23:58:07.903Z,1.23
